Time;durP1;ratioP1;P1;durP2;ratioP2;P2;SDS_P1;SDS_P2;PMS_P1;PMS_P2;Temp;Humidity;BMP_temperature;BMP_pressure;BME280_temperature;BME280_humidity;BME280_pressure;Samples;Min_cycle;Max_cycle;Signal;HPM_P1;HPM_P2
2023/09/18 00:01:34;;;;;;;2.33;2.13;;;19.60;99.90;;;;;;467077;254;28961;-74
2023/09/18 00:03:35;;;;;;;5.57;3.10;;;19.60;99.90;;;;;;467078;254;28811;-72
2023/09/18 00:05:36;;;;;;;5.37;2.80;;;19.70;99.90;;;;;;467082;249;28889;-72
2023/09/18 00:07:37;;;;;;;6.07;2.90;;;19.70;99.90;;;;;;467092;253;28925;-73
2023/09/18 00:09:38;;;;;;;4.67;2.67;;;19.70;99.90;;;;;;467140;254;28979;-72
2023/09/18 00:11:40;;;;;;;6.03;2.83;;;19.80;99.90;;;;;;467129;253;28976;-73
2023/09/18 00:13:41;;;;;;;4.23;2.50;;;19.90;99.90;;;;;;467091;253;29361;-72
2023/09/18 00:15:44;;;;;;;4.93;3.17;;;19.90;99.90;;;;;;467105;253;29432;-73
2023/09/18 00:17:43;;;;;;;4.07;2.70;;;20.00;99.90;;;;;;467061;250;29396;-74
2023/09/18 00:19:45;;;;;;;4.97;2.67;;;20.00;99.90;;;;;;467138;253;29409;-73
2023/09/18 00:21:46;;;;;;;8.17;3.13;;;20.00;99.90;;;;;;467127;253;28868;-73
2023/09/18 00:23:47;;;;;;;5.20;2.90;;;20.10;99.90;;;;;;467142;253;28833;-72
2023/09/18 00:25:48;;;;;;;6.40;2.70;;;20.10;99.90;;;;;;467143;253;28876;-73
2023/09/18 00:27:51;;;;;;;4.67;3.07;;;20.20;99.90;;;;;;467159;253;28867;-73
2023/09/18 00:29:51;;;;;;;7.50;2.83;;;20.20;99.90;;;;;;467076;253;28821;-73
2023/09/18 00:31:52;;;;;;;5.90;2.87;;;20.30;99.90;;;;;;467134;254;28999;-73
2023/09/18 00:33:53;;;;;;;5.90;2.60;;;20.20;99.90;;;;;;467121;253;28840;-73
2023/09/18 00:35:55;;;;;;;3.80;2.67;;;20.20;99.90;;;;;;467156;253;28828;-73
2023/09/18 00:37:56;;;;;;;2.43;2.10;;;20.30;99.90;;;;;;467159;253;28869;-73
2023/09/18 00:39:57;;;;;;;6.20;3.20;;;20.30;99.90;;;;;;467103;253;29370;-72
2023/09/18 00:41:58;;;;;;;4.60;2.93;;;20.40;99.90;;;;;;467146;253;29391;-73
2023/09/18 00:44:00;;;;;;;4.00;2.20;;;20.40;99.90;;;;;;467070;254;29555;-72
2023/09/18 00:46:01;;;;;;;4.07;2.40;;;20.50;99.90;;;;;;467141;253;29340;-73
2023/09/18 00:48:02;;;;;;;3.80;2.40;;;20.50;99.90;;;;;;467151;253;28920;-73
2023/09/18 00:50:03;;;;;;;2.60;2.37;;;20.40;99.90;;;;;;467109;253;28907;-72
2023/09/18 00:52:05;;;;;;;5.53;2.70;;;20.40;99.90;;;;;;467127;253;28859;-72
2023/09/18 00:54:06;;;;;;;6.83;2.70;;;20.40;99.90;;;;;;467181;253;28847;-74
2023/09/18 00:56:07;;;;;;;4.90;2.80;;;20.40;99.90;;;;;;467157;253;28908;-72
2023/09/18 00:58:08;;;;;;;10.33;3.00;;;20.60;99.90;;;;;;467131;253;28896;-73
2023/09/18 01:00:10;;;;;;;8.23;2.90;;;20.50;99.90;;;;;;467127;254;28903;-73
2023/09/18 01:02:11;;;;;;;3.30;2.93;;;20.40;99.90;;;;;;467130;253;28940;-73
2023/09/18 01:04:13;;;;;;;5.93;2.90;;;20.20;99.90;;;;;;467144;253;29335;-75
2023/09/18 01:06:13;;;;;;;4.30;2.63;;;20.10;99.90;;;;;;467154;253;29294;-73
2023/09/18 01:08:15;;;;;;;6.50;3.33;;;20.00;99.90;;;;;;467128;253;29324;-74
2023/09/18 01:10:17;;;;;;;6.10;2.50;;;19.90;99.90;;;;;;467138;254;28971;-74
2023/09/18 01:12:17;;;;;;;4.13;2.80;;;19.80;99.90;;;;;;467160;253;28837;-73
2023/09/18 01:14:18;;;;;;;2.90;2.50;;;19.80;99.90;;;;;;467148;253;28881;-74
2023/09/18 01:16:20;;;;;;;3.30;2.77;;;19.80;99.90;;;;;;467144;253;28854;-74
2023/09/18 01:18:21;;;;;;;6.53;2.80;;;19.90;99.90;;;;;;467160;253;28864;-73
2023/09/18 01:20:22;;;;;;;5.03;2.63;;;19.90;99.90;;;;;;467147;253;29206;-73
2023/09/18 01:22:23;;;;;;;5.33;2.93;;;19.80;99.90;;;;;;467155;254;28846;-73
2023/09/18 01:24:25;;;;;;;3.30;2.60;;;19.70;99.90;;;;;;467186;253;28872;-73
2023/09/18 01:26:26;;;;;;;2.90;2.63;;;19.70;99.90;;;;;;467141;253;28855;-73
2023/09/18 01:28:27;;;;;;;3.17;2.50;;;19.80;99.90;;;;;;467143;253;29380;-73
2023/09/18 01:30:29;;;;;;;2.60;2.40;;;19.70;99.90;;;;;;467165;253;29488;-74
2023/09/18 01:32:30;;;;;;;3.73;2.90;;;19.70;99.90;;;;;;467190;254;29390;-73
2023/09/18 01:34:33;;;;;;;4.03;2.73;;;19.70;99.90;;;;;;467151;254;28955;-73
2023/09/18 01:36:32;;;;;;;6.70;3.30;;;19.90;99.90;;;;;;467092;253;28847;-73
2023/09/18 01:38:33;;;;;;;6.23;2.70;;;20.10;99.90;;;;;;467162;253;28847;-73
2023/09/18 01:40:35;;;;;;;6.20;3.03;;;20.20;99.90;;;;;;467171;254;28867;-74
2023/09/18 01:42:36;;;;;;;4.87;2.83;;;20.30;99.90;;;;;;467162;254;28868;-73
2023/09/18 01:44:40;;;;;;;5.63;3.07;;;20.40;99.90;;;;;;467131;254;28884;-73
2023/09/18 01:46:41;;;;;;;8.00;3.10;;;20.40;99.90;;;;;;467097;253;28864;-73
2023/09/18 01:48:42;;;;;;;5.90;3.43;;;20.30;99.90;;;;;;467105;253;28842;-73
2023/09/18 01:50:44;;;;;;;15.43;3.90;;;20.40;99.90;;;;;;467139;253;28869;-73
2023/09/18 01:52:45;;;;;;;10.33;3.50;;;20.50;99.90;;;;;;467155;253;29603;-73
2023/09/18 01:54:46;;;;;;;11.10;3.27;;;20.50;99.90;;;;;;467148;253;29287;-72
2023/09/18 01:56:47;;;;;;;12.70;4.50;;;20.50;99.90;;;;;;467152;253;28878;-73
2023/09/18 01:58:49;;;;;;;15.00;5.20;;;20.50;99.90;;;;;;467177;253;28893;-74
2023/09/18 02:00:50;;;;;;;9.13;4.43;;;20.50;99.90;;;;;;467208;253;28841;-73
2023/09/18 02:02:51;;;;;;;10.83;4.33;;;20.40;99.90;;;;;;467181;253;29049;-74
2023/09/18 02:04:52;;;;;;;9.50;4.10;;;20.40;99.90;;;;;;467114;253;28931;-72
2023/09/18 02:06:54;;;;;;;10.27;3.93;;;20.50;99.90;;;;;;467081;253;29013;-73
2023/09/18 02:08:55;;;;;;;19.90;5.17;;;20.50;99.90;;;;;;467162;253;28876;-76
2023/09/18 02:10:56;;;;;;;15.20;4.33;;;20.50;99.90;;;;;;467154;249;29482;-73
2023/09/18 02:12:57;;;;;;;16.23;5.40;;;20.60;99.90;;;;;;467154;254;29472;-73
2023/09/18 02:15:04;;;;;;;22.30;5.40;;;20.70;99.90;;;;;;467151;253;29339;-73
2023/09/18 02:17:00;;;;;;;15.97;4.80;;;20.70;99.90;;;;;;466757;254;28870;-73
2023/09/18 02:19:01;;;;;;;14.07;4.57;;;20.80;99.90;;;;;;467143;254;28981;-75
2023/09/18 02:21:02;;;;;;;11.43;4.67;;;20.80;99.90;;;;;;467138;253;28941;-73
2023/09/18 02:23:04;;;;;;;16.53;5.13;;;20.60;99.90;;;;;;467140;253;28912;-73
2023/09/18 02:25:05;;;;;;;14.60;5.10;;;20.50;99.90;;;;;;467156;253;28906;-74
2023/09/18 02:27:06;;;;;;;17.40;5.47;;;20.40;99.90;;;;;;467163;254;28838;-73
2023/09/18 02:29:10;;;;;;;16.77;5.40;;;20.20;99.90;;;;;;467163;253;29335;-74
2023/09/18 02:31:09;;;;;;;11.30;4.00;;;20.10;99.90;;;;;;467046;253;29366;-74
2023/09/18 02:33:10;;;;;;;16.20;5.13;;;20.00;99.90;;;;;;467109;253;29595;-74
2023/09/18 02:35:12;;;;;;;14.60;4.40;;;19.90;99.90;;;;;;467166;254;28870;-73
2023/09/18 02:37:13;;;;;;;16.83;5.00;;;19.80;99.90;;;;;;467173;254;29053;-73
2023/09/18 02:39:14;;;;;;;13.20;4.20;;;19.70;99.90;;;;;;467165;254;29079;-74
2023/09/18 02:41:15;;;;;;;16.70;4.73;;;19.70;99.90;;;;;;467152;253;28913;-72
2023/09/18 02:43:16;;;;;;;8.30;4.03;;;19.60;99.90;;;;;;467123;253;28898;-73
2023/09/18 02:45:18;;;;;;;23.53;5.33;;;19.60;99.90;;;;;;467172;253;29122;-76
2023/09/18 02:47:19;;;;;;;12.20;4.37;;;19.60;99.90;;;;;;467140;253;28879;-73
2023/09/18 02:49:20;;;;;;;9.00;3.80;;;19.50;99.90;;;;;;467138;250;29375;-73
2023/09/18 02:51:21;;;;;;;8.13;3.80;;;19.50;99.90;;;;;;467150;250;29412;-74
2023/09/18 02:53:23;;;;;;;14.40;4.17;;;19.50;99.90;;;;;;467124;253;29440;-73
2023/09/18 02:55:24;;;;;;;10.30;4.50;;;19.50;99.90;;;;;;467126;253;28997;-73
2023/09/18 02:57:25;;;;;;;11.83;4.90;;;19.50;99.90;;;;;;467131;249;28830;-73
2023/09/18 02:59:26;;;;;;;15.63;4.23;;;19.50;99.90;;;;;;467129;253;28882;-73
2023/09/18 03:01:28;;;;;;;9.97;4.07;;;19.40;99.90;;;;;;467145;253;28874;-73
2023/09/18 03:03:29;;;;;;;12.47;4.70;;;19.40;99.90;;;;;;467145;254;28906;-73
2023/09/18 03:05:30;;;;;;;12.57;4.50;;;19.30;99.90;;;;;;467157;253;29012;-72
2023/09/18 03:07:31;;;;;;;12.40;4.33;;;19.30;99.90;;;;;;467131;253;29320;-73
2023/09/18 03:09:33;;;;;;;15.50;4.07;;;19.30;99.90;;;;;;467133;253;29367;-73
2023/09/18 03:11:34;;;;;;;16.47;3.90;;;19.20;99.90;;;;;;467172;253;29570;-74
2023/09/18 03:13:35;;;;;;;13.73;3.97;;;19.20;99.90;;;;;;467174;254;29033;-73
2023/09/18 03:15:37;;;;;;;9.53;4.03;;;19.20;99.90;;;;;;467150;253;28892;-73
2023/09/18 03:17:40;;;;;;;14.93;4.27;;;19.20;99.90;;;;;;467126;253;28941;-73
2023/09/18 03:19:39;;;;;;;12.00;5.30;;;19.10;99.90;;;;;;467006;254;28897;-74
2023/09/18 03:21:40;;;;;;;7.77;3.80;;;19.10;99.90;;;;;;467155;253;28953;-74
2023/09/18 03:23:41;;;;;;;12.43;3.87;;;19.10;99.90;;;;;;467173;253;28819;-73
2023/09/18 03:25:43;;;;;;;15.27;4.87;;;19.10;99.90;;;;;;467162;253;29567;-73
2023/09/18 03:27:44;;;;;;;14.73;4.90;;;19.10;99.90;;;;;;467109;254;30164;-73
2023/09/18 03:29:45;;;;;;;9.90;4.30;;;19.20;99.90;;;;;;467015;254;28936;-71
2023/09/18 03:31:46;;;;;;;16.57;4.23;;;19.20;99.90;;;;;;467132;253;28854;-73
2023/09/18 03:33:48;;;;;;;11.80;3.70;;;19.30;99.90;;;;;;467151;253;28937;-74
2023/09/18 03:35:49;;;;;;;10.23;3.90;;;19.30;99.90;;;;;;467134;253;28964;-74
2023/09/18 03:37:50;;;;;;;12.30;3.70;;;19.40;99.90;;;;;;467152;254;29384;-72
2023/09/18 03:39:51;;;;;;;11.83;3.70;;;19.40;99.90;;;;;;467146;254;28960;-72
2023/09/18 03:41:53;;;;;;;10.47;3.70;;;19.40;99.90;;;;;;467140;253;28917;-72
2023/09/18 03:43:54;;;;;;;14.77;4.70;;;19.40;99.90;;;;;;467106;254;29412;-74
2023/09/18 03:45:55;;;;;;;8.37;3.60;;;19.40;99.90;;;;;;467116;253;29361;-73
2023/09/18 03:47:56;;;;;;;10.93;3.53;;;19.40;99.90;;;;;;467158;253;29389;-75
2023/09/18 03:49:58;;;;;;;9.90;3.87;;;19.30;99.90;;;;;;467155;253;28952;-73
2023/09/18 03:51:59;;;;;;;9.10;3.60;;;19.30;99.90;;;;;;467141;253;28886;-74
2023/09/18 03:54:00;;;;;;;8.30;3.43;;;19.20;99.90;;;;;;467180;253;28944;-73
2023/09/18 03:56:01;;;;;;;12.80;4.33;;;19.20;99.90;;;;;;467149;254;28866;-73
2023/09/18 03:58:04;;;;;;;8.93;3.90;;;19.10;99.90;;;;;;467144;253;29067;-74
2023/09/18 04:00:04;;;;;;;7.40;3.53;;;19.00;99.90;;;;;;467133;253;28909;-73
2023/09/18 04:02:05;;;;;;;7.40;3.43;;;19.00;99.90;;;;;;467122;253;28986;-73
2023/09/18 04:04:06;;;;;;;8.23;3.63;;;18.90;99.90;;;;;;467160;253;28884;-74
2023/09/18 04:06:08;;;;;;;5.23;3.00;;;18.90;99.90;;;;;;467130;253;29376;-73
2023/09/18 04:08:09;;;;;;;12.63;4.13;;;18.80;99.90;;;;;;467131;253;30201;-74
2023/09/18 04:10:15;;;;;;;9.00;3.20;;;18.80;99.90;;;;;;467124;254;29407;-74
2023/09/18 04:12:11;;;;;;;7.53;3.30;;;18.70;99.90;;;;;;466835;254;28870;-74
2023/09/18 04:14:13;;;;;;;11.50;3.80;;;18.70;99.90;;;;;;467160;253;28975;-73
2023/09/18 04:16:17;;;;;;;11.73;3.87;;;18.70;99.90;;;;;;467123;253;28834;-72
2023/09/18 04:18:15;;;;;;;10.80;4.17;;;18.80;99.90;;;;;;466987;254;28941;-74
2023/09/18 04:20:16;;;;;;;9.97;3.73;;;18.70;99.90;;;;;;467137;253;28845;-73
2023/09/18 04:22:18;;;;;;;11.90;3.80;;;18.60;99.90;;;;;;467157;253;28916;-73
2023/09/18 04:24:19;;;;;;;7.17;2.73;;;18.60;99.90;;;;;;467157;253;28984;-75
2023/09/18 04:26:20;;;;;;;7.63;3.47;;;18.50;99.90;;;;;;467134;254;29548;-72
2023/09/18 04:28:22;;;;;;;8.87;3.33;;;18.40;99.90;;;;;;467147;254;29533;-71
2023/09/18 04:30:23;;;;;;;11.03;4.00;;;18.40;99.90;;;;;;467154;254;29532;-72
2023/09/18 04:32:25;;;;;;;7.33;3.20;;;18.30;99.90;;;;;;467168;253;29362;-73
2023/09/18 04:34:25;;;;;;;8.03;3.40;;;18.30;99.90;;;;;;467084;254;28873;-74
2023/09/18 04:36:27;;;;;;;12.20;3.60;;;18.30;99.90;;;;;;467157;253;28889;-73
2023/09/18 04:38:28;;;;;;;9.90;2.90;;;18.30;99.90;;;;;;467148;253;28905;-74
2023/09/18 04:40:32;;;;;;;8.50;4.00;;;18.30;99.90;;;;;;467178;253;28901;-75
2023/09/18 04:42:30;;;;;;;10.87;3.40;;;18.30;99.90;;;;;;467031;254;28824;-72
2023/09/18 04:44:32;;;;;;;10.43;3.50;;;18.40;99.90;;;;;;467164;253;28997;-74
2023/09/18 04:46:33;;;;;;;10.47;3.40;;;18.40;99.90;;;;;;467153;254;28856;-73
2023/09/18 04:48:34;;;;;;;6.63;3.30;;;18.40;99.90;;;;;;467162;254;29344;-74
2023/09/18 04:50:35;;;;;;;8.77;4.07;;;18.30;99.90;;;;;;467177;253;29358;-74
2023/09/18 04:52:37;;;;;;;10.17;3.97;;;18.30;99.90;;;;;;467158;253;29416;-73
2023/09/18 04:54:38;;;;;;;11.43;4.10;;;18.30;99.90;;;;;;467154;253;28865;-73
2023/09/18 04:56:39;;;;;;;11.80;4.00;;;18.30;99.90;;;;;;467149;253;28945;-73
2023/09/18 04:58:40;;;;;;;10.20;3.93;;;18.20;99.90;;;;;;467151;253;28913;-74
2023/09/18 05:00:42;;;;;;;8.70;3.90;;;18.30;99.90;;;;;;467138;253;28860;-73
2023/09/18 05:02:43;;;;;;;10.30;3.50;;;18.30;99.90;;;;;;467003;253;28846;-74
2023/09/18 05:04:44;;;;;;;11.87;4.77;;;18.30;99.90;;;;;;467070;253;28920;-72
2023/09/18 05:06:45;;;;;;;17.50;4.37;;;18.30;99.90;;;;;;467126;253;29106;-74
2023/09/18 05:08:47;;;;;;;9.63;4.30;;;18.30;99.90;;;;;;467155;253;29303;-71
2023/09/18 05:10:48;;;;;;;22.70;5.37;;;18.20;99.90;;;;;;467159;253;29367;-73
2023/09/18 05:12:50;;;;;;;10.03;4.27;;;18.20;99.90;;;;;;467127;253;29480;-72
2023/09/18 05:14:51;;;;;;;9.73;4.63;;;18.20;99.90;;;;;;467106;254;28881;-74
2023/09/18 05:16:52;;;;;;;14.83;4.90;;;18.20;99.90;;;;;;467146;253;28933;-74
2023/09/18 05:18:53;;;;;;;12.63;4.50;;;18.20;99.90;;;;;;467138;253;28834;-72
2023/09/18 05:20:54;;;;;;;17.33;4.73;;;18.10;99.90;;;;;;467126;253;28996;-72
2023/09/18 05:22:55;;;;;;;14.30;4.00;;;18.10;99.90;;;;;;467110;253;28914;-73
2023/09/18 05:24:57;;;;;;;11.07;4.30;;;18.10;99.90;;;;;;467192;253;28917;-72
2023/09/18 05:26:58;;;;;;;14.43;4.50;;;18.10;99.90;;;;;;467156;253;28917;-72
2023/09/18 05:28:59;;;;;;;12.57;4.83;;;18.10;99.90;;;;;;467143;253;29361;-74
2023/09/18 05:31:00;;;;;;;10.90;4.73;;;18.10;99.90;;;;;;467129;253;29347;-71
2023/09/18 05:33:04;;;;;;;16.50;5.37;;;18.10;99.90;;;;;;467159;253;28985;-73
2023/09/18 05:35:06;;;;;;;11.83;4.60;;;18.00;99.90;;;;;;467109;254;28865;-74
2023/09/18 05:37:07;;;;;;;13.53;4.23;;;18.00;99.90;;;;;;467145;253;28841;-72
2023/09/18 05:39:12;;;;;;;24.17;5.17;;;18.00;99.90;;;;;;467146;253;28862;-72
2023/09/18 05:41:12;;;;;;;8.80;4.87;;;18.00;99.90;;;;;;467069;254;29324;-73
2023/09/18 05:43:13;;;;;;;17.27;4.60;;;18.00;99.90;;;;;;467110;253;29425;-74
2023/09/18 05:45:15;;;;;;;13.20;5.20;;;18.00;99.90;;;;;;467123;253;29436;-72
2023/09/18 05:47:16;;;;;;;14.03;5.47;;;18.10;99.90;;;;;;467142;253;28997;-75
2023/09/18 05:49:17;;;;;;;9.07;4.20;;;18.00;99.90;;;;;;467106;254;28918;-72
2023/09/18 05:51:18;;;;;;;12.70;4.47;;;18.10;99.90;;;;;;467160;253;28965;-72
2023/09/18 05:53:20;;;;;;;19.63;5.30;;;18.00;99.90;;;;;;467125;253;28877;-73
2023/09/18 05:55:21;;;;;;;13.87;5.43;;;18.00;99.90;;;;;;467136;254;28840;-73
2023/09/18 05:57:22;;;;;;;16.97;5.20;;;18.00;99.90;;;;;;467104;253;28886;-74
2023/09/18 05:59:23;;;;;;;12.97;4.60;;;18.10;99.90;;;;;;467135;253;28914;-72
2023/09/18 06:01:25;;;;;;;12.17;5.03;;;18.10;99.90;;;;;;467121;253;29445;-73
2023/09/18 06:03:26;;;;;;;9.10;4.20;;;18.10;99.90;;;;;;467110;253;29644;-73
2023/09/18 06:05:27;;;;;;;6.77;3.83;;;18.10;99.90;;;;;;467141;253;28831;-72
2023/09/18 06:07:29;;;;;;;12.63;4.40;;;18.10;99.90;;;;;;467132;253;28868;-75
2023/09/18 06:09:30;;;;;;;15.83;5.07;;;18.20;99.90;;;;;;467117;250;28877;-74
2023/09/18 06:11:31;;;;;;;17.17;4.93;;;18.20;99.90;;;;;;467115;253;28880;-72
2023/09/18 06:13:34;;;;;;;12.43;3.80;;;18.20;99.90;;;;;;467154;253;29420;-75
2023/09/18 06:15:34;;;;;;;8.97;3.97;;;18.20;99.90;;;;;;467077;253;28917;-71
2023/09/18 06:17:35;;;;;;;15.77;5.00;;;18.20;99.90;;;;;;467136;254;28942;-72
2023/09/18 06:19:36;;;;;;;18.83;5.40;;;18.30;99.90;;;;;;467108;253;29327;-72
2023/09/18 06:21:37;;;;;;;10.97;4.87;;;18.20;99.90;;;;;;467116;253;29323;-72
2023/09/18 06:23:39;;;;;;;15.27;4.40;;;18.20;99.90;;;;;;467142;253;29465;-72
2023/09/18 06:25:40;;;;;;;10.50;3.90;;;18.30;99.90;;;;;;467150;253;28953;-72
2023/09/18 06:27:41;;;;;;;8.47;3.97;;;18.30;99.90;;;;;;467113;253;28887;-72
2023/09/18 06:29:43;;;;;;;13.93;3.90;;;18.30;99.90;;;;;;467091;254;28936;-74
2023/09/18 06:31:44;;;;;;;14.30;4.47;;;18.30;99.90;;;;;;467147;254;28845;-73
2023/09/18 06:33:45;;;;;;;11.40;4.50;;;18.30;99.90;;;;;;467078;253;28988;-74
2023/09/18 06:35:48;;;;;;;11.60;4.13;;;18.30;99.90;;;;;;467110;253;28929;-72
2023/09/18 06:37:48;;;;;;;10.93;3.93;;;18.30;99.90;;;;;;467060;253;28873;-74
2023/09/18 06:39:49;;;;;;;10.23;3.80;;;18.30;99.90;;;;;;467155;254;29382;-75
2023/09/18 06:41:50;;;;;;;9.33;3.57;;;18.30;99.90;;;;;;467151;254;29742;-73
2023/09/18 06:43:52;;;;;;;9.57;3.50;;;18.40;99.90;;;;;;467142;253;29369;-74
2023/09/18 06:45:52;;;;;;;8.53;4.37;;;18.40;99.90;;;;;;467128;253;28880;-74
2023/09/18 06:47:54;;;;;;;13.20;4.07;;;18.40;99.90;;;;;;467156;253;28882;-74
2023/09/18 06:49:55;;;;;;;11.17;4.40;;;18.40;99.90;;;;;;467174;253;28996;-76
2023/09/18 06:51:56;;;;;;;13.83;4.00;;;18.40;99.90;;;;;;467127;253;28829;-71
2023/09/18 06:53:57;;;;;;;10.23;3.97;;;18.40;99.90;;;;;;467135;253;28871;-73
2023/09/18 06:55:59;;;;;;;12.73;3.83;;;18.40;99.90;;;;;;467149;253;28998;-72
2023/09/18 06:58:00;;;;;;;9.77;4.00;;;18.40;99.90;;;;;;467133;253;29408;-72
2023/09/18 07:00:01;;;;;;;4.03;3.10;;;18.50;99.90;;;;;;467117;253;29357;-74
2023/09/18 07:02:03;;;;;;;10.03;4.37;;;18.50;99.90;;;;;;467073;250;29361;-74
2023/09/18 07:04:04;;;;;;;11.40;3.90;;;18.50;99.90;;;;;;467087;253;29379;-74
2023/09/18 07:06:05;;;;;;;7.00;3.60;;;18.50;99.90;;;;;;467106;253;28893;-74
2023/09/18 07:08:11;;;;;;;8.93;3.33;;;18.60;99.90;;;;;;467129;253;28838;-74
2023/09/18 07:10:07;;;;;;;9.70;4.13;;;18.60;99.90;;;;;;466848;254;28941;-74
2023/09/18 07:12:12;;;;;;;7.93;3.40;;;18.60;99.90;;;;;;467121;253;28958;-73
2023/09/18 07:14:13;;;;;;;11.33;4.20;;;18.60;99.90;;;;;;467104;253;30221;-73
2023/09/18 07:16:14;;;;;;;9.20;4.00;;;18.70;99.90;;;;;;467164;254;29392;-73
2023/09/18 07:18:15;;;;;;;12.33;4.60;;;18.70;99.90;;;;;;467162;253;29450;-74
2023/09/18 07:20:17;;;;;;;7.50;3.50;;;18.80;99.90;;;;;;467178;253;28975;-73
2023/09/18 07:22:18;;;;;;;11.03;4.33;;;18.80;99.90;;;;;;467180;253;28869;-73
2023/09/18 07:24:20;;;;;;;11.07;3.00;;;18.80;99.90;;;;;;467158;253;28901;-75
2023/09/18 07:26:20;;;;;;;9.87;3.57;;;18.90;99.90;;;;;;467156;253;28829;-73
2023/09/18 07:28:22;;;;;;;8.90;3.57;;;18.90;99.90;;;;;;467178;253;28888;-73
2023/09/18 07:30:26;;;;;;;12.50;3.60;;;18.90;99.90;;;;;;467151;253;28892;-73
2023/09/18 07:32:26;;;;;;;10.37;3.10;;;18.90;99.90;;;;;;466946;254;28957;-73
2023/09/18 07:34:25;;;;;;;6.90;2.90;;;19.00;99.90;;;;;;467095;253;29446;-76
2023/09/18 07:36:27;;;;;;;7.70;3.37;;;19.10;99.90;;;;;;467185;253;29403;-73
2023/09/18 07:38:28;;;;;;;6.47;2.83;;;19.10;99.90;;;;;;467166;253;29386;-72
2023/09/18 07:40:29;;;;;;;11.63;3.53;;;19.10;99.90;;;;;;467162;253;28974;-73
2023/09/18 07:42:30;;;;;;;8.33;3.13;;;19.10;99.90;;;;;;467195;253;28955;-73
2023/09/18 07:44:32;;;;;;;8.10;3.43;;;19.20;99.90;;;;;;467159;253;28906;-75
2023/09/18 07:46:33;;;;;;;4.47;3.00;;;19.20;99.90;;;;;;467167;253;28830;-73
2023/09/18 07:48:35;;;;;;;5.97;2.80;;;19.30;99.90;;;;;;467150;253;28908;-74
2023/09/18 07:50:35;;;;;;;5.43;2.70;;;19.30;99.90;;;;;;467171;253;28855;-74
2023/09/18 07:52:37;;;;;;;7.07;2.70;;;19.30;99.90;;;;;;467170;253;28836;-73
2023/09/18 07:54:38;;;;;;;7.60;3.33;;;19.40;99.90;;;;;;467165;253;28968;-73
2023/09/18 07:56:39;;;;;;;5.33;2.70;;;19.40;99.90;;;;;;467145;254;29377;-72
2023/09/18 07:58:40;;;;;;;8.23;2.80;;;19.30;99.90;;;;;;467033;253;29421;-72
2023/09/18 08:00:42;;;;;;;5.53;2.63;;;19.30;99.90;;;;;;467097;253;29488;-74
2023/09/18 08:02:43;;;;;;;7.20;2.67;;;19.30;99.90;;;;;;466894;254;29463;-74
2023/09/18 08:04:44;;;;;;;8.70;2.83;;;19.30;99.90;;;;;;467142;253;28856;-74
2023/09/18 08:06:45;;;;;;;5.40;3.27;;;19.30;99.90;;;;;;467141;253;28967;-74
2023/09/18 08:08:47;;;;;;;8.17;2.60;;;19.30;99.90;;;;;;467143;253;28984;-73
2023/09/18 08:10:48;;;;;;;5.73;2.50;;;19.30;99.90;;;;;;467161;254;28876;-74
2023/09/18 08:12:51;;;;;;;4.10;2.40;;;19.30;99.90;;;;;;467150;253;28855;-73
2023/09/18 08:14:50;;;;;;;9.87;2.70;;;19.30;99.90;;;;;;467029;254;28876;-73
2023/09/18 08:16:52;;;;;;;4.73;2.50;;;19.40;99.90;;;;;;467150;253;28839;-74
2023/09/18 08:18:53;;;;;;;14.70;4.20;;;19.30;99.90;;;;;;467139;253;28906;-73
2023/09/18 08:20:58;;;;;;;8.00;2.87;;;19.40;99.90;;;;;;467160;253;29337;-75
2023/09/18 08:23:01;;;;;;;5.43;2.60;;;19.30;99.90;;;;;;467115;254;29535;-74
2023/09/18 08:25:00;;;;;;;6.63;3.20;;;19.30;99.90;;;;;;467019;254;29000;-73
2023/09/18 08:27:01;;;;;;;7.13;2.40;;;19.30;99.90;;;;;;467128;253;29004;-73
2023/09/18 08:29:02;;;;;;;5.67;2.40;;;19.30;99.90;;;;;;467146;253;28869;-74
2023/09/18 08:31:03;;;;;;;4.77;2.63;;;19.40;99.90;;;;;;467162;253;28880;-73
2023/09/18 08:33:05;;;;;;;7.70;2.30;;;19.40;99.90;;;;;;467156;253;28898;-74
2023/09/18 08:35:06;;;;;;;6.87;2.77;;;19.50;99.90;;;;;;467147;254;28959;-73
2023/09/18 08:37:08;;;;;;;6.07;2.43;;;19.60;99.90;;;;;;467133;253;28868;-74
2023/09/18 08:39:09;;;;;;;5.43;2.50;;;19.60;99.90;;;;;;467107;254;28993;-75
2023/09/18 08:41:10;;;;;;;6.43;2.70;;;19.70;99.90;;;;;;467187;253;28872;-73
2023/09/18 08:43:11;;;;;;;4.30;2.60;;;19.80;99.90;;;;;;467127;253;29472;-74
2023/09/18 08:45:12;;;;;;;7.73;2.40;;;20.00;99.90;;;;;;467143;253;29296;-73
2023/09/18 08:47:13;;;;;;;5.17;2.70;;;20.10;99.90;;;;;;467145;253;29380;-73
2023/09/18 08:49:15;;;;;;;5.33;2.37;;;20.10;99.90;;;;;;467176;253;29463;-74
2023/09/18 08:51:16;;;;;;;7.23;2.73;;;20.20;99.90;;;;;;467140;254;28984;-73
2023/09/18 08:53:17;;;;;;;5.10;2.80;;;20.30;99.90;;;;;;467154;253;28873;-74
2023/09/18 08:55:18;;;;;;;8.27;2.90;;;20.30;99.90;;;;;;467098;254;28881;-74
2023/09/18 08:57:20;;;;;;;6.53;2.20;;;20.30;99.90;;;;;;467143;253;28940;-74
2023/09/18 08:59:21;;;;;;;7.10;2.43;;;20.20;99.90;;;;;;467136;253;28944;-74
2023/09/18 09:01:22;;;;;;;5.33;2.50;;;20.20;99.90;;;;;;467125;249;28833;-74
2023/09/18 09:03:24;;;;;;;4.57;2.60;;;20.10;99.90;;;;;;467119;253;28859;-74
2023/09/18 09:05:25;;;;;;;8.73;2.60;;;20.10;99.90;;;;;;467130;253;28979;-75
2023/09/18 09:07:26;;;;;;;3.63;2.57;;;20.10;99.90;;;;;;467140;253;28839;-73
2023/09/18 09:09:28;;;;;;;10.07;2.70;;;20.00;99.90;;;;;;467141;253;29450;-73
2023/09/18 09:11:28;;;;;;;4.77;2.33;;;20.00;99.90;;;;;;467137;250;29274;-73
2023/09/18 09:13:30;;;;;;;3.70;2.37;;;20.10;99.90;;;;;;467157;254;29437;-73
2023/09/18 09:15:31;;;;;;;6.83;2.37;;;20.20;99.90;;;;;;467148;253;28868;-75
2023/09/18 09:17:32;;;;;;;2.00;1.80;;;20.30;99.90;;;;;;467142;253;28828;-74
2023/09/18 09:19:36;;;;;;;9.00;2.60;;;20.30;99.90;;;;;;467133;253;28949;-74
2023/09/18 09:21:35;;;;;;;7.40;2.60;;;20.40;99.90;;;;;;466945;254;28889;-73
2023/09/18 09:23:36;;;;;;;4.83;2.07;;;20.50;99.90;;;;;;467151;253;28899;-74
2023/09/18 09:25:37;;;;;;;3.17;1.83;;;20.40;99.90;;;;;;467130;253;28876;-73
2023/09/18 09:27:38;;;;;;;7.80;2.53;;;20.50;99.90;;;;;;467145;253;28824;-73
2023/09/18 09:29:40;;;;;;;6.20;2.00;;;20.50;99.90;;;;;;467159;253;28903;-73
2023/09/18 09:31:41;;;;;;;7.37;2.10;;;20.40;99.90;;;;;;467151;253;29416;-75
2023/09/18 09:33:42;;;;;;;4.87;2.20;;;20.30;99.90;;;;;;467153;253;29396;-73
2023/09/18 09:35:43;;;;;;;2.90;1.70;;;20.30;99.90;;;;;;467065;254;29401;-72
2023/09/18 09:37:45;;;;;;;6.67;2.10;;;20.40;99.90;;;;;;467114;250;29350;-73
2023/09/18 09:39:48;;;;;;;6.37;2.07;;;20.50;99.90;;;;;;467132;253;28857;-73
2023/09/18 09:41:47;;;;;;;4.03;1.93;;;20.50;99.90;;;;;;467102;253;28909;-75
2023/09/18 09:43:49;;;;;;;6.23;2.20;;;20.50;99.90;;;;;;467134;253;28867;-73
2023/09/18 09:45:50;;;;;;;5.53;2.10;;;20.50;99.90;;;;;;467134;254;28912;-74
2023/09/18 09:47:51;;;;;;;7.43;2.30;;;20.40;99.90;;;;;;467123;253;28972;-73
2023/09/18 09:49:54;;;;;;;3.80;1.83;;;20.50;99.90;;;;;;467138;253;28868;-73
2023/09/18 09:51:54;;;;;;;6.80;2.10;;;20.40;99.90;;;;;;467034;254;28880;-73
2023/09/18 09:53:55;;;;;;;3.30;1.90;;;20.40;99.90;;;;;;467093;253;28809;-73
2023/09/18 09:55:56;;;;;;;4.40;2.00;;;20.40;99.90;;;;;;467112;250;28975;-74
2023/09/18 09:57:59;;;;;;;2.90;1.90;;;20.50;99.90;;;;;;467146;253;30080;-74
2023/09/18 09:59:58;;;;;;;3.90;2.13;;;20.50;99.90;;;;;;467054;254;29271;-74
2023/09/18 10:02:00;;;;;;;4.10;2.00;;;20.60;99.90;;;;;;467157;253;29374;-73
2023/09/18 10:04:01;;;;;;;4.50;2.17;;;20.70;99.90;;;;;;467129;253;28902;-73
2023/09/18 10:06:02;;;;;;;3.10;1.90;;;20.80;99.90;;;;;;467117;253;28875;-73
2023/09/18 10:08:03;;;;;;;3.63;2.20;;;20.80;99.90;;;;;;467137;253;28868;-75
2023/09/18 10:10:05;;;;;;;2.80;1.70;;;20.80;99.90;;;;;;467177;253;28820;-73
2023/09/18 10:12:06;;;;;;;5.20;2.40;;;20.80;99.90;;;;;;467150;253;28905;-74
2023/09/18 10:14:07;;;;;;;6.80;2.17;;;20.80;99.90;;;;;;467163;253;28920;-72
2023/09/18 10:16:10;;;;;;;3.40;1.90;;;20.70;99.90;;;;;;467181;254;28891;-74
2023/09/18 10:18:11;;;;;;;3.33;1.70;;;20.90;99.90;;;;;;467158;254;28872;-75
2023/09/18 10:20:16;;;;;;;4.20;2.23;;;21.00;99.90;;;;;;467120;254;29044;-73
2023/09/18 10:22:13;;;;;;;4.10;1.80;;;21.00;99.90;;;;;;466880;254;29479;-73
2023/09/18 10:24:14;;;;;;;2.53;2.00;;;21.00;99.90;;;;;;467090;253;30121;-74
2023/09/18 10:26:16;;;;;;;4.07;1.63;;;21.00;99.90;;;;;;467178;253;29394;-73
2023/09/18 10:28:16;;;;;;;7.40;1.90;;;21.00;99.90;;;;;;467165;253;28976;-74